createdAt,value
2022-08-26T00:01:57.156Z,15.00
2022-08-26T00:04:26.075Z,15.30
2022-08-26T00:06:56.137Z,16.47
2022-08-26T00:09:25.197Z,15.00
2022-08-26T00:11:54.200Z,15.90
2022-08-26T00:14:25.040Z,15.43
2022-08-26T00:16:55.409Z,15.90
2022-08-26T00:19:22.752Z,15.40
2022-08-26T00:21:51.244Z,16.73
2022-08-26T00:24:21.616Z,14.70
2022-08-26T00:26:50.404Z,15.63
2022-08-26T00:29:19.572Z,15.80
2022-08-26T00:31:48.628Z,16.63
2022-08-26T00:34:16.663Z,16.50
2022-08-26T00:36:47.785Z,14.93
2022-08-26T00:39:19.982Z,16.17
2022-08-26T00:41:47.932Z,15.70
2022-08-26T00:44:15.053Z,16.53
2022-08-26T00:46:50.928Z,15.37
2022-08-26T00:49:38.665Z,15.90
2022-08-26T00:52:14.775Z,14.70
2022-08-26T00:55:04.365Z,14.97
2022-08-26T00:57:35.589Z,16.40
2022-08-26T01:00:14.234Z,16.97
2022-08-26T01:02:46.822Z,15.37
2022-08-26T01:05:15.661Z,15.20
2022-08-26T01:07:43.549Z,15.73
2022-08-26T01:10:19.049Z,16.30
2022-08-26T01:12:56.942Z,16.90
2022-08-26T01:15:35.170Z,16.17
2022-08-26T01:18:06.444Z,16.27
2022-08-26T01:21:01.770Z,15.90
2022-08-26T01:23:38.279Z,15.40
2022-08-26T01:26:25.928Z,15.37
2022-08-26T01:28:59.637Z,15.93
2022-08-26T01:31:37.512Z,16.07
2022-08-26T01:34:29.590Z,16.90
2022-08-26T01:37:15.547Z,16.27
2022-08-26T01:39:48.650Z,16.80
2022-08-26T01:42:20.857Z,15.40
2022-08-26T01:45:20.654Z,15.80
2022-08-26T01:47:57.084Z,15.80
2022-08-26T01:50:34.812Z,15.67
2022-08-26T01:53:11.335Z,17.50
2022-08-26T01:55:44.330Z,17.03
2022-08-26T01:58:24.730Z,17.90
2022-08-26T02:00:52.876Z,17.10
2022-08-26T02:03:24.140Z,18.93
2022-08-26T02:06:05.991Z,17.60
2022-08-26T02:08:55.223Z,17.23
2022-08-26T02:11:23.491Z,16.83
2022-08-26T02:14:02.624Z,16.27
2022-08-26T02:16:39.979Z,17.63
2022-08-26T02:19:32.999Z,18.07
2022-08-26T02:22:07.066Z,17.27
2022-08-26T02:24:53.369Z,19.40
2022-08-26T02:27:32.349Z,16.80
2022-08-26T02:30:26.980Z,17.93
2022-08-26T02:32:59.464Z,17.67
2022-08-26T02:35:27.002Z,18.67
2022-08-26T02:37:54.616Z,16.93
2022-08-26T02:40:31.580Z,17.33
2022-08-26T02:42:58.711Z,16.90
2022-08-26T02:45:28.839Z,16.70
2022-08-26T02:47:58.431Z,18.30
2022-08-26T02:50:27.576Z,17.77
2022-08-26T02:52:54.831Z,18.53
2022-08-26T02:55:21.903Z,18.63
2022-08-26T02:57:52.299Z,19.37
2022-08-26T03:00:19.836Z,19.37
2022-08-26T03:02:46.827Z,18.33
2022-08-26T03:05:13.881Z,18.80
2022-08-26T03:07:43.372Z,18.87
2022-08-26T03:10:12.480Z,19.77
2022-08-26T03:12:40.852Z,19.60
2022-08-26T03:15:15.994Z,17.90
2022-08-26T03:17:47.850Z,18.37
2022-08-26T03:20:17.425Z,19.40
2022-08-26T03:22:45.907Z,18.00
2022-08-26T03:25:16.387Z,18.03
2022-08-26T03:27:44.384Z,18.20
2022-08-26T03:30:33.920Z,18.23
2022-08-26T03:33:02.162Z,18.77
2022-08-26T03:35:31.203Z,19.53
2022-08-26T03:37:59.264Z,19.57
2022-08-26T03:40:29.008Z,16.90
2022-08-26T03:42:56.137Z,18.10
2022-08-26T03:45:23.310Z,18.70
2022-08-26T03:47:52.636Z,18.80
2022-08-26T03:50:24.245Z,18.77
2022-08-26T03:52:54.560Z,18.07
2022-08-26T03:55:27.542Z,18.30
2022-08-26T03:57:54.938Z,19.33
2022-08-26T04:00:22.582Z,18.87
2022-08-26T04:02:51.135Z,19.70
2022-08-26T04:05:23.505Z,18.63
2022-08-26T04:07:51.820Z,18.60
2022-08-26T04:10:28.392Z,19.90
2022-08-26T04:13:06.417Z,20.77
2022-08-26T04:15:34.172Z,20.10
2022-08-26T04:18:01.240Z,19.37
2022-08-26T04:20:28.508Z,18.73
2022-08-26T04:22:55.614Z,20.07
2022-08-26T04:25:22.721Z,19.20
2022-08-26T04:27:51.681Z,18.70
2022-08-26T04:30:19.937Z,18.90
2022-08-26T04:32:46.882Z,20.20
2022-08-26T04:35:13.857Z,20.70
2022-08-26T04:37:43.059Z,20.77
2022-08-26T04:40:11.593Z,21.23
2022-08-26T04:42:38.578Z,22.07
2022-08-26T04:45:10.327Z,20.73
2022-08-26T04:47:38.782Z,21.27
2022-08-26T04:50:08.312Z,22.50
2022-08-26T04:52:38.110Z,20.93
2022-08-26T04:55:08.572Z,21.93
2022-08-26T04:57:36.208Z,22.77
2022-08-26T05:00:07.813Z,22.70
2022-08-26T05:02:34.789Z,23.03
2022-08-26T05:05:02.371Z,22.97
2022-08-26T05:07:29.278Z,23.03
2022-08-26T05:09:59.030Z,23.43
2022-08-26T05:12:27.714Z,23.13
2022-08-26T05:14:54.918Z,22.37
2022-08-26T05:17:22.414Z,22.50
2022-08-26T05:19:50.511Z,21.67
2022-08-26T05:22:17.510Z,23.17
2022-08-26T05:24:46.330Z,23.40
2022-08-26T05:27:14.622Z,21.87
2022-08-26T05:29:42.310Z,20.27
2022-08-26T05:32:14.786Z,21.60
2022-08-26T05:34:45.251Z,21.17
2022-08-26T05:37:16.803Z,20.27
2022-08-26T05:39:51.375Z,20.40
2022-08-26T05:42:22.872Z,20.07
2022-08-26T05:44:56.991Z,21.10
2022-08-26T05:47:28.594Z,23.33
2022-08-26T05:49:59.411Z,21.23
2022-08-26T05:52:34.844Z,22.00
2022-08-26T05:55:06.843Z,21.30
2022-08-26T05:57:42.240Z,22.90
2022-08-26T06:00:17.179Z,20.10
2022-08-26T06:02:48.442Z,20.53
2022-08-26T06:05:17.419Z,20.33
2022-08-26T06:08:06.608Z,18.53
2022-08-26T06:10:39.415Z,19.23
2022-08-26T06:13:14.796Z,18.20
2022-08-26T06:15:51.871Z,17.40
2022-08-26T06:18:33.631Z,15.63
2022-08-26T06:21:24.758Z,16.07
2022-08-26T06:24:19.300Z,15.57
2022-08-26T06:27:02.919Z,15.40
2022-08-26T06:29:38.796Z,15.13
2022-08-26T06:32:10.164Z,15.10
2022-08-26T06:34:41.343Z,13.63
2022-08-26T06:37:12.684Z,14.27
2022-08-26T06:39:42.760Z,13.30
2022-08-26T06:42:16.284Z,13.60
2022-08-26T06:44:46.491Z,12.53
2022-08-26T06:47:17.844Z,14.70
2022-08-26T06:49:48.492Z,14.57
2022-08-26T06:52:24.580Z,15.33
2022-08-26T06:54:55.857Z,13.73
2022-08-26T06:57:27.264Z,12.63
2022-08-26T06:59:58.436Z,14.43
2022-08-26T07:02:29.801Z,13.43
2022-08-26T07:05:00.916Z,13.70
2022-08-26T07:07:32.268Z,13.57
2022-08-26T07:10:03.208Z,13.03
2022-08-26T07:12:34.224Z,12.63
2022-08-26T07:15:06.808Z,12.00
2022-08-26T07:17:38.687Z,12.97
2022-08-26T07:20:13.266Z,12.47
2022-08-26T07:22:45.437Z,11.53
2022-08-26T07:25:14.068Z,12.50
2022-08-26T07:27:46.302Z,12.93
2022-08-26T07:30:24.788Z,12.77
2022-08-26T07:32:59.461Z,13.67
2022-08-26T07:35:30.929Z,13.60
2022-08-26T07:38:03.291Z,12.87
2022-08-26T07:40:35.480Z,12.53
2022-08-26T07:43:07.050Z,12.63
2022-08-26T07:45:39.565Z,12.10
2022-08-26T07:48:10.819Z,11.83
2022-08-26T07:50:49.243Z,11.90
2022-08-26T07:53:21.720Z,12.77
2022-08-26T07:55:55.938Z,12.47
2022-08-26T07:58:26.608Z,13.10
2022-08-26T08:03:53.191Z,11.40
2022-08-26T08:06:31.931Z,11.97
2022-08-26T08:09:03.617Z,12.30
2022-08-26T08:11:35.630Z,11.07
2022-08-26T08:14:11.636Z,11.13
2022-08-26T08:16:46.781Z,10.67
2022-08-26T08:19:19.526Z,10.70
2022-08-26T08:21:53.267Z,11.50
2022-08-26T08:24:25.926Z,9.80
2022-08-26T08:26:59.450Z,8.67
2022-08-26T08:29:31.366Z,8.60
2022-08-26T08:31:59.922Z,7.40
2022-08-26T08:34:29.058Z,8.63
2022-08-26T08:36:57.592Z,8.30
2022-08-26T08:39:26.186Z,9.03
2022-08-26T08:42:45.814Z,8.43
2022-08-26T08:45:36.747Z,8.27
2022-08-26T08:48:22.287Z,8.27
2022-08-26T08:51:14.578Z,7.73
2022-08-26T08:53:47.666Z,7.77
2022-08-26T08:56:28.636Z,8.40
2022-08-26T08:59:16.328Z,7.90
2022-08-26T09:01:52.590Z,7.90
2022-08-26T09:05:45.464Z,8.97
2022-08-26T09:08:31.839Z,8.87
2022-08-26T09:11:02.294Z,8.40
2022-08-26T09:13:31.707Z,9.40
2022-08-26T09:16:27.630Z,8.13
2022-08-26T09:19:42.518Z,8.97
2022-08-26T09:22:09.966Z,9.77
2022-08-26T09:24:41.514Z,9.67
2022-08-26T09:27:11.483Z,9.27
2022-08-26T09:29:45.356Z,8.40
2022-08-26T09:32:26.307Z,9.50
2022-08-26T09:35:25.747Z,9.30
2022-08-26T09:37:53.871Z,8.97
2022-08-26T09:40:35.715Z,8.93
2022-08-26T09:43:22.682Z,8.63
2022-08-26T09:46:22.468Z,8.67
2022-08-26T09:48:51.636Z,7.27
2022-08-26T09:51:31.731Z,8.57
2022-08-26T09:54:03.860Z,8.17
2022-08-26T09:56:38.235Z,6.83
2022-08-26T09:59:11.930Z,7.00
2022-08-26T10:01:44.716Z,7.37
2022-08-26T10:04:21.660Z,7.90
2022-08-26T10:07:08.082Z,7.13
2022-08-26T10:09:42.992Z,7.77
2022-08-26T10:12:22.720Z,7.30
2022-08-26T10:15:03.497Z,7.90
2022-08-26T10:17:53.173Z,7.57
2022-08-26T10:20:56.044Z,8.37
2022-08-26T10:23:31.033Z,7.50
2022-08-26T10:26:25.169Z,7.93
2022-08-26T10:29:13.450Z,6.90
2022-08-26T10:32:40.802Z,8.27
2022-08-26T10:35:14.874Z,6.53
2022-08-26T10:38:01.394Z,8.70
2022-08-26T10:40:57.405Z,7.03
2022-08-26T10:43:41.700Z,6.67
2022-08-26T10:46:27.305Z,7.40
2022-08-26T10:49:08.373Z,6.70
2022-08-26T10:51:51.917Z,7.30
2022-08-26T10:55:24.533Z,6.70
2022-08-26T10:58:27.638Z,6.70
2022-08-26T11:01:33.006Z,7.07
2022-08-26T11:04:35.074Z,8.60
2022-08-26T11:07:37.721Z,7.43
2022-08-26T11:10:53.984Z,7.77
2022-08-26T11:14:06.398Z,7.70
2022-08-26T11:16:49.209Z,8.20
2022-08-26T11:19:59.549Z,8.00
2022-08-26T11:22:47.403Z,7.93
2022-08-26T11:25:29.154Z,7.37
2022-08-26T11:28:00.708Z,7.57
2022-08-26T11:30:58.081Z,8.20
2022-08-26T11:33:48.701Z,7.70
2022-08-26T11:36:45.300Z,7.50
2022-08-26T11:39:20.842Z,6.60
2022-08-26T11:41:53.081Z,7.27
2022-08-26T11:44:37.207Z,7.50
2022-08-26T11:47:11.536Z,7.90
2022-08-26T11:49:39.206Z,8.60
2022-08-26T11:52:20.948Z,7.97
2022-08-26T11:55:14.238Z,7.67
2022-08-26T11:57:49.278Z,8.83
2022-08-26T12:00:31.416Z,8.83
2022-08-26T12:03:07.998Z,8.63
2022-08-26T12:05:49.113Z,8.97
2022-08-26T12:08:31.467Z,7.90
2022-08-26T12:11:21.131Z,8.50
2022-08-26T12:14:07.204Z,7.97
2022-08-26T12:16:39.901Z,8.23
2022-08-26T12:19:32.573Z,7.37
2022-08-26T12:22:17.914Z,6.90
2022-08-26T12:25:10.003Z,7.50
2022-08-26T12:27:45.420Z,7.90
2022-08-26T12:30:23.707Z,7.87
2022-08-26T12:33:19.925Z,7.77
2022-08-26T12:35:56.739Z,7.17
2022-08-26T12:38:27.544Z,7.57
2022-08-26T12:40:56.771Z,7.70
2022-08-26T12:43:43.685Z,8.50
2022-08-26T12:46:29.731Z,8.60
2022-08-26T12:49:01.060Z,9.00
2022-08-26T12:51:34.647Z,9.47
2022-08-26T12:54:06.596Z,9.57
2022-08-26T12:56:39.405Z,9.23
2022-08-26T12:59:25.340Z,8.93
2022-08-26T13:01:54.183Z,9.13
2022-08-26T13:04:43.312Z,9.00
2022-08-26T13:07:26.731Z,9.53
2022-08-26T13:09:58.631Z,10.27
2022-08-26T13:12:37.276Z,10.83
2022-08-26T13:15:06.621Z,9.30
2022-08-26T13:17:35.733Z,8.83
2022-08-26T13:20:04.589Z,9.20
2022-08-26T13:22:32.446Z,8.37
2022-08-26T13:24:59.696Z,10.03
2022-08-26T13:27:27.836Z,9.70
2022-08-26T13:29:57.273Z,9.90
2022-08-26T13:32:26.117Z,8.90
2022-08-26T13:34:57.303Z,9.90
2022-08-26T13:37:35.312Z,9.10
2022-08-26T13:40:07.462Z,8.60
2022-08-26T13:42:34.700Z,8.33
2022-08-26T13:45:03.100Z,9.63
2022-08-26T13:47:30.561Z,9.87
2022-08-26T13:49:57.653Z,9.27
2022-08-26T13:52:30.163Z,9.87
2022-08-26T13:55:01.664Z,9.10
2022-08-26T13:57:30.453Z,9.23
2022-08-26T13:59:59.205Z,9.43
2022-08-26T14:02:27.639Z,8.90
2022-08-26T14:04:55.203Z,9.03
2022-08-26T14:07:22.603Z,9.03
2022-08-26T14:09:51.421Z,8.10
2022-08-26T14:12:18.327Z,5.70
2022-08-26T14:14:45.343Z,4.40
2022-08-26T14:17:22.323Z,4.87
2022-08-26T14:19:52.277Z,4.60
2022-08-26T14:22:22.717Z,4.50
2022-08-26T14:24:50.350Z,4.20
2022-08-26T14:27:17.546Z,4.40
2022-08-26T14:29:44.505Z,3.97
2022-08-26T14:32:25.867Z,4.47
2022-08-26T14:34:54.913Z,5.37
2022-08-26T14:37:22.266Z,4.43
2022-08-26T14:39:49.818Z,3.93
2022-08-26T14:42:27.786Z,4.17
2022-08-26T14:45:07.026Z,4.10
2022-08-26T14:47:33.918Z,4.70
2022-08-26T14:50:00.858Z,4.93
2022-08-26T14:52:27.808Z,5.17
2022-08-26T14:54:55.044Z,5.20
2022-08-26T14:57:22.402Z,4.43
2022-08-26T14:59:50.491Z,5.83
2022-08-26T15:02:32.606Z,5.50
2022-08-26T15:05:03.897Z,5.60
2022-08-26T15:07:31.091Z,5.07
2022-08-26T15:09:58.066Z,4.60
2022-08-26T15:12:25.050Z,5.87
2022-08-26T15:14:51.906Z,4.30
2022-08-26T15:17:18.774Z,4.00
2022-08-26T15:19:46.102Z,4.20
2022-08-26T15:22:12.979Z,4.40
2022-08-26T15:24:40.023Z,4.60
2022-08-26T15:27:06.999Z,4.63
2022-08-26T15:29:35.393Z,4.70
2022-08-26T15:32:04.661Z,5.27
2022-08-26T15:34:32.002Z,5.50
2022-08-26T15:36:58.992Z,7.00
2022-08-26T15:39:25.968Z,5.40
2022-08-26T15:41:52.955Z,6.30
2022-08-26T15:44:19.957Z,8.13
2022-08-26T15:46:50.201Z,6.63
2022-08-26T15:49:18.617Z,6.60
2022-08-26T15:51:50.443Z,6.30
2022-08-26T15:54:23.063Z,6.93
2022-08-26T15:56:52.144Z,5.67
2022-08-26T15:59:22.107Z,7.07
2022-08-26T16:01:49.654Z,8.67
2022-08-26T16:04:17.476Z,7.23
2022-08-26T16:06:49.970Z,8.27
2022-08-26T16:09:17.703Z,7.77
2022-08-26T16:11:44.732Z,7.43
2022-08-26T16:14:11.719Z,8.27
2022-08-26T16:16:40.503Z,7.80
2022-08-26T16:19:08.942Z,8.43
2022-08-26T16:21:36.257Z,7.13
2022-08-26T16:24:04.272Z,7.57
2022-08-26T16:26:36.088Z,7.13
2022-08-26T16:29:09.144Z,8.03
2022-08-26T16:31:38.059Z,7.60
2022-08-26T16:34:07.388Z,8.43
2022-08-26T16:36:37.897Z,7.13
2022-08-26T16:39:08.876Z,8.30
2022-08-26T16:41:36.900Z,8.20
2022-08-26T16:44:05.635Z,7.30
2022-08-26T16:46:35.845Z,7.83
2022-08-26T16:49:05.949Z,8.20
2022-08-26T16:51:38.148Z,7.53
2022-08-26T16:54:08.685Z,7.80
2022-08-26T16:56:37.763Z,8.13
2022-08-26T16:59:10.393Z,8.60
2022-08-26T17:01:38.018Z,8.73
2022-08-26T17:04:05.505Z,8.20
2022-08-26T17:06:34.023Z,7.43
2022-08-26T17:09:01.001Z,7.83
2022-08-26T17:11:28.237Z,7.87
2022-08-26T17:13:55.338Z,7.00
2022-08-26T17:16:26.420Z,7.67
2022-08-26T17:18:57.725Z,7.40
2022-08-26T17:21:27.858Z,6.73
2022-08-26T17:23:56.287Z,6.90
2022-08-26T17:26:23.333Z,8.07
2022-08-26T17:28:51.380Z,7.47
2022-08-26T17:31:20.147Z,7.23
2022-08-26T17:33:53.196Z,7.07
2022-08-26T17:36:22.946Z,7.00
2022-08-26T17:38:55.271Z,8.17
2022-08-26T17:41:22.612Z,8.43
2022-08-26T17:43:49.573Z,8.20
2022-08-26T17:46:16.728Z,8.77
2022-08-26T17:48:43.801Z,9.30
2022-08-26T17:51:15.689Z,9.13
2022-08-26T17:53:43.361Z,9.03
2022-08-26T17:56:15.896Z,8.43
2022-08-26T17:58:47.451Z,7.90
2022-08-26T18:01:20.653Z,8.50
2022-08-26T18:03:48.796Z,9.90
2022-08-26T18:06:15.926Z,8.23
2022-08-26T18:08:43.890Z,9.50
2022-08-26T18:11:20.214Z,8.93
2022-08-26T18:13:47.844Z,8.83
2022-08-26T18:16:18.256Z,8.47
2022-08-26T18:18:48.366Z,9.80
2022-08-26T18:21:23.058Z,9.17
2022-08-26T18:23:52.290Z,10.60
2022-08-26T18:26:33.502Z,8.43
2022-08-26T18:29:01.694Z,9.37
2022-08-26T18:31:30.038Z,9.60
2022-08-26T18:34:00.394Z,9.00
2022-08-26T18:36:35.358Z,9.00
2022-08-26T18:39:06.027Z,8.93
2022-08-26T18:41:44.275Z,9.23
2022-08-26T18:44:14.175Z,10.40
2022-08-26T18:46:43.659Z,10.23
2022-08-26T18:49:13.815Z,9.33
2022-08-26T18:51:42.919Z,9.87
2022-08-26T18:54:11.505Z,10.07
2022-08-26T18:56:42.156Z,10.00
2022-08-26T18:59:10.129Z,10.60
2022-08-26T19:01:40.518Z,10.47
2022-08-26T19:04:14.760Z,10.50
2022-08-26T19:06:46.853Z,11.50
2022-08-26T19:09:17.327Z,11.47
2022-08-26T19:11:46.771Z,12.53
2022-08-26T19:14:18.580Z,12.27
2022-08-26T19:16:52.301Z,11.60
2022-08-26T19:19:23.749Z,12.30
2022-08-26T19:21:51.661Z,12.13
2022-08-26T19:24:20.372Z,11.83
2022-08-26T19:26:58.397Z,12.33
2022-08-26T19:29:34.824Z,12.80
2022-08-26T19:32:04.069Z,12.20
2022-08-26T19:34:31.480Z,12.90
2022-08-26T19:36:58.664Z,13.07
2022-08-26T19:39:26.832Z,12.97
2022-08-26T19:41:54.115Z,13.63
2022-08-26T19:44:42.102Z,14.00
2022-08-26T19:47:11.558Z,11.90
2022-08-26T19:49:39.156Z,12.90
2022-08-26T19:52:06.839Z,12.03
2022-08-26T19:54:35.137Z,12.00
2022-08-26T19:57:02.262Z,14.27
2022-08-26T19:59:29.357Z,14.33
2022-08-26T20:02:01.254Z,12.53
2022-08-26T20:04:31.829Z,10.50
2022-08-26T20:07:01.993Z,10.57
2022-08-26T20:09:34.057Z,10.90
2022-08-26T20:12:05.073Z,12.47
2022-08-26T20:14:33.681Z,11.27
2022-08-26T20:17:02.463Z,12.20
2022-08-26T20:19:48.330Z,11.80
2022-08-26T20:22:16.817Z,10.30
2022-08-26T20:24:44.905Z,12.17
2022-08-26T20:27:13.121Z,12.27
2022-08-26T20:29:40.634Z,13.40
2022-08-26T20:32:08.895Z,12.47
2022-08-26T20:34:36.841Z,11.90
2022-08-26T20:37:05.085Z,12.93
2022-08-26T20:39:32.106Z,12.40
2022-08-26T20:41:59.258Z,12.33
2022-08-26T20:44:26.573Z,11.33
2022-08-26T20:46:53.673Z,12.37
2022-08-26T20:49:20.874Z,12.67
2022-08-26T20:51:52.878Z,13.30
2022-08-26T20:54:28.199Z,11.37
2022-08-26T20:56:58.541Z,12.00
2022-08-26T20:59:26.823Z,11.87
2022-08-26T21:01:53.898Z,11.77
2022-08-26T21:04:25.440Z,11.83
2022-08-26T21:06:54.318Z,13.30
2022-08-26T21:09:25.145Z,13.10
2022-08-26T21:11:54.713Z,12.33
2022-08-26T21:14:23.210Z,11.37
2022-08-26T21:16:53.498Z,13.30
2022-08-26T21:19:20.439Z,15.37
2022-08-26T21:21:49.281Z,15.20
2022-08-26T21:24:17.473Z,15.67
2022-08-26T21:26:44.606Z,14.60
2022-08-26T21:29:13.379Z,13.73
2022-08-26T21:31:46.221Z,12.47
2022-08-26T21:34:18.843Z,13.80
2022-08-26T21:36:47.796Z,16.00
2022-08-26T21:39:16.644Z,16.20
2022-08-26T21:41:44.958Z,18.23
2022-08-26T21:44:15.382Z,20.03
2022-08-26T21:46:45.739Z,20.03
2022-08-26T21:49:18.127Z,19.60
2022-08-26T21:51:48.866Z,18.47
2022-08-26T21:54:17.962Z,19.40
2022-08-26T21:56:47.454Z,18.37
2022-08-26T21:59:18.751Z,18.40
2022-08-26T22:01:47.013Z,17.97
2022-08-26T22:04:15.703Z,19.53
2022-08-26T22:06:49.916Z,17.00
2022-08-26T22:09:23.559Z,16.43
2022-08-26T22:11:52.695Z,16.60
2022-08-26T22:14:30.422Z,17.50
2022-08-26T22:16:59.521Z,16.17
2022-08-26T22:19:26.641Z,17.80
2022-08-26T22:21:55.511Z,17.80
2022-08-26T22:24:26.798Z,17.23
2022-08-26T22:26:55.947Z,19.10
2022-08-26T22:29:24.962Z,18.10
2022-08-26T22:31:52.641Z,17.53
2022-08-26T22:34:20.983Z,18.27
2022-08-26T22:36:49.986Z,17.83
2022-08-26T22:39:25.147Z,17.73
2022-08-26T22:41:55.084Z,17.43
2022-08-26T22:44:23.056Z,15.57
2022-08-26T22:46:54.119Z,14.50
2022-08-26T22:49:22.627Z,15.00
2022-08-26T22:51:50.841Z,14.83
2022-08-26T22:54:17.921Z,14.80
2022-08-26T22:56:45.695Z,15.07
2022-08-26T22:59:13.604Z,16.57
2022-08-26T23:01:44.037Z,18.20
2022-08-26T23:04:11.979Z,18.00
2022-08-26T23:06:43.353Z,18.37
2022-08-26T23:09:16.952Z,18.80
2022-08-26T23:11:47.698Z,18.23
2022-08-26T23:14:17.648Z,18.10
2022-08-26T23:16:45.158Z,18.50
2022-08-26T23:19:14.857Z,16.73
2022-08-26T23:21:42.284Z,18.30
2022-08-26T23:24:10.476Z,19.53
2022-08-26T23:26:40.116Z,17.50
2022-08-26T23:29:11.684Z,16.53
2022-08-26T23:31:41.561Z,17.63
2022-08-26T23:34:27.204Z,15.43
2022-08-26T23:36:56.857Z,14.53
2022-08-26T23:39:25.360Z,14.80
2022-08-26T23:41:52.637Z,16.47
2022-08-26T23:44:20.601Z,17.87
2022-08-26T23:46:47.590Z,17.10
2022-08-26T23:49:14.525Z,19.10
2022-08-26T23:52:00.034Z,16.80
2022-08-26T23:54:27.006Z,16.67
2022-08-26T23:56:53.977Z,17.03
2022-08-26T23:59:21.081Z,17.47
